Terminal Aerodrome Forecast
Issued by NWS Cleveland, OH

Home | Current Version | Previous Version | Graphics & Text | Print | Product List | Glossary On
Versions: 1 2 3 4 5 6 7 8 9 10 11 12 13 14 15 16 17 18 19 20 21 22 23 24 25
488
FTUS41 KCLE 041515 AAA
TAFYNG
TAF AMD
KYNG 041515Z 0415/0512 19004KT P6SM SCT100
     FM041600 17008KT P6SM VCSH SCT070 BKN100
     FM042100 20008KT P6SM -SHRA OVC050
      TEMPO 0421/0423 3SM -TSRA OVC025CB
     FM042300 32007KT 5SM -SHRA BR OVC025
     FM050300 03007KT 5SM BR OVC015=

USA.gov is the U.S. government's official web portal to all federal, state and local government web resources and services.